createdAt,value
2018-04-26T00:00:25.228Z,63.40
2018-04-26T00:02:53.607Z,63.90
2018-04-26T00:05:22.272Z,63.90
2018-04-26T00:07:50.665Z,63.80
2018-04-26T00:10:19.054Z,63.80
2018-04-26T00:12:47.476Z,62.80
2018-04-26T00:15:15.861Z,62.00
2018-04-26T00:17:45.755Z,62.00
2018-04-26T00:20:14.907Z,61.90
2018-04-26T00:22:43.592Z,61.90
2018-04-26T00:25:12.002Z,61.80
2018-04-26T00:27:40.389Z,61.30
2018-04-26T00:30:09.548Z,60.90
2018-04-26T00:32:37.931Z,60.80
2018-04-26T00:35:06.340Z,60.90
2018-04-26T00:37:35.489Z,60.90
2018-04-26T00:40:04.074Z,60.90
2018-04-26T00:42:32.444Z,61.00
2018-04-26T00:45:00.820Z,61.50
2018-04-26T00:47:29.224Z,61.60
2018-04-26T00:49:57.603Z,61.70
2018-04-26T00:52:26.002Z,61.90
2018-04-26T00:54:54.392Z,61.60
2018-04-26T00:57:23.568Z,62.60
2018-04-26T00:59:51.960Z,62.50
2018-04-26T01:02:20.405Z,63.30
2018-04-26T01:04:48.829Z,63.80
2018-04-26T01:07:17.979Z,63.10
2018-04-26T01:09:46.377Z,63.10
2018-04-26T01:12:14.759Z,63.20
2018-04-26T01:14:43.516Z,63.40
2018-04-26T01:17:11.886Z,63.60
2018-04-26T01:19:40.368Z,64.20
2018-04-26T01:22:08.772Z,64.40
2018-04-26T01:24:37.149Z,64.40
2018-04-26T01:27:05.530Z,65.10
2018-04-26T01:29:33.905Z,65.10
2018-04-26T01:32:02.776Z,65.30
2018-04-26T01:34:31.173Z,65.40
2018-04-26T01:37:17.325Z,65.40
2018-04-26T01:39:45.697Z,65.80
2018-04-26T01:42:14.077Z,65.90
2018-04-26T01:44:42.472Z,65.90
2018-04-26T01:47:11.722Z,65.60
2018-04-26T01:49:40.128Z,65.90
2018-04-26T01:52:09.265Z,66.20
2018-04-26T01:54:37.862Z,66.10
2018-04-26T01:57:06.253Z,65.70
2018-04-26T01:59:34.625Z,66.00
2018-04-26T02:02:03.028Z,64.10
2018-04-26T02:04:31.408Z,64.10
2018-04-26T02:07:00.562Z,64.40
2018-04-26T02:09:28.950Z,64.40
2018-04-26T02:11:57.372Z,64.30
2018-04-26T02:14:26.521Z,64.20
2018-04-26T02:16:54.915Z,64.10
2018-04-26T02:19:23.329Z,63.30
2018-04-26T02:21:52.471Z,64.20
2018-04-26T02:24:20.860Z,64.20
2018-04-26T02:26:49.237Z,64.30
2018-04-26T02:29:17.919Z,64.20
2018-04-26T02:31:46.392Z,63.90
2018-04-26T02:34:14.757Z,63.70
2018-04-26T02:36:43.144Z,63.60
2018-04-26T02:39:11.512Z,63.20
2018-04-26T02:41:39.923Z,62.20
2018-04-26T02:44:08.301Z,62.40
2018-04-26T02:46:36.853Z,61.70
2018-04-26T02:49:05.228Z,61.70
2018-04-26T02:51:33.609Z,62.10
2018-04-26T02:54:02.001Z,61.90
2018-04-26T02:56:30.378Z,61.90
2018-04-26T02:58:58.778Z,61.50
2018-04-26T03:01:27.160Z,61.80
2018-04-26T03:03:55.752Z,61.50
2018-04-26T03:06:24.133Z,61.30
2018-04-26T03:08:52.526Z,61.20
2018-04-26T03:11:21.684Z,61.50
2018-04-26T03:13:50.156Z,61.40
2018-04-26T03:16:18.612Z,61.00
2018-04-26T03:18:46.985Z,59.80
2018-04-26T03:21:15.405Z,59.40
2018-04-26T03:23:43.780Z,59.20
2018-04-26T03:26:12.145Z,59.40
2018-04-26T03:28:40.546Z,59.10
2018-04-26T03:31:09.062Z,57.90
2018-04-26T03:33:37.344Z,57.20
2018-04-26T03:36:06.481Z,56.40
2018-04-26T03:38:35.124Z,56.40
2018-04-26T03:41:04.272Z,55.70
2018-04-26T03:43:32.636Z,55.70
2018-04-26T03:46:01.033Z,55.50
2018-04-26T03:48:29.409Z,55.80
2018-04-26T03:50:57.969Z,56.20
2018-04-26T03:53:26.355Z,56.20
2018-04-26T03:55:54.733Z,56.60
2018-04-26T03:58:23.137Z,56.50
2018-04-26T04:01:09.369Z,56.00
2018-04-26T04:06:46.994Z,54.10
2018-04-26T04:09:15.392Z,53.20
2018-04-26T04:11:43.768Z,53.20
2018-04-26T04:14:12.454Z,53.00
2018-04-26T04:16:40.820Z,53.50
2018-04-26T04:19:09.191Z,53.70
2018-04-26T04:21:37.600Z,54.10
2018-04-26T04:24:05.968Z,53.40
2018-04-26T04:26:34.356Z,53.70
2018-04-26T04:29:02.724Z,54.30
2018-04-26T04:31:31.240Z,54.60
2018-04-26T04:33:59.611Z,54.30
2018-04-26T04:36:27.976Z,54.10
2018-04-26T04:38:56.369Z,52.70
2018-04-26T04:41:24.748Z,51.90
2018-04-26T04:43:53.252Z,51.20
2018-04-26T04:46:28.609Z,52.00
2018-04-26T04:49:01.913Z,51.10
2018-04-26T04:51:31.110Z,51.10
2018-04-26T04:54:02.325Z,50.90
2018-04-26T04:56:31.433Z,51.20
2018-04-26T04:59:00.853Z,51.00
2018-04-26T05:01:32.970Z,50.90
2018-04-26T05:04:02.246Z,50.90
2018-04-26T05:06:33.794Z,51.10
2018-04-26T05:09:02.169Z,51.10
2018-04-26T05:11:30.753Z,52.30
2018-04-26T05:14:01.691Z,52.60
2018-04-26T05:16:30.373Z,53.50
2018-04-26T05:19:03.022Z,54.10
2018-04-26T05:21:32.514Z,56.10
2018-04-26T05:24:00.881Z,56.10
2018-04-26T05:26:29.268Z,56.20
2018-04-26T05:28:57.661Z,56.30
2018-04-26T05:31:26.793Z,57.50
2018-04-26T05:33:55.184Z,57.50
2018-04-26T05:36:23.549Z,57.80
2018-04-26T05:38:52.142Z,58.40
2018-04-26T05:41:20.521Z,58.70
2018-04-26T05:43:48.902Z,58.90
2018-04-26T05:46:17.304Z,59.60
2018-04-26T05:48:45.684Z,60.70
2018-04-26T05:51:14.072Z,60.80
2018-04-26T05:53:43.212Z,61.60
2018-04-26T05:56:11.597Z,61.50
2018-04-26T05:58:39.969Z,61.60
2018-04-26T06:01:08.336Z,61.40
2018-04-26T06:03:36.908Z,61.60
2018-04-26T06:06:05.158Z,61.50
2018-04-26T06:08:33.912Z,62.50
2018-04-26T06:11:02.281Z,63.00
2018-04-26T06:13:30.646Z,63.20
2018-04-26T06:15:59.036Z,62.70
2018-04-26T06:18:27.405Z,63.30
2018-04-26T06:20:55.792Z,63.60
2018-04-26T06:23:24.156Z,63.60
2018-04-26T06:25:52.547Z,64.50
2018-04-26T06:28:20.917Z,64.50
2018-04-26T06:30:49.285Z,64.30
2018-04-26T06:33:17.681Z,65.10
2018-04-26T06:35:46.051Z,64.90
2018-04-26T06:38:14.456Z,64.50
2018-04-26T06:40:42.825Z,64.70
2018-04-26T06:43:11.412Z,64.70
2018-04-26T06:45:39.836Z,64.50
2018-04-26T06:48:08.978Z,63.70
2018-04-26T06:50:37.373Z,63.70
2018-04-26T06:53:05.745Z,63.70
2018-04-26T06:55:34.140Z,63.00
2018-04-26T06:58:02.518Z,63.50
2018-04-26T07:00:31.345Z,63.00
2018-04-26T07:02:59.670Z,63.70
2018-04-26T07:05:28.048Z,62.50
2018-04-26T07:07:56.444Z,63.10
2018-04-26T07:10:24.830Z,63.40
2018-04-26T07:12:53.237Z,63.50
2018-04-26T07:15:22.377Z,63.70
2018-04-26T07:17:50.948Z,63.70
2018-04-26T07:20:19.313Z,63.90
2018-04-26T07:22:47.684Z,63.90
2018-04-26T07:25:16.072Z,63.70
2018-04-26T07:27:44.444Z,62.60
2018-04-26T07:30:12.844Z,63.20
2018-04-26T07:32:41.217Z,62.70
2018-04-26T07:35:09.773Z,62.40
2018-04-26T07:37:38.909Z,61.30
2018-04-26T07:40:07.285Z,61.30
2018-04-26T07:42:35.678Z,61.10
2018-04-26T07:45:04.053Z,61.10
2018-04-26T07:47:32.448Z,60.50
2018-04-26T07:50:00.821Z,60.60
2018-04-26T07:52:29.476Z,61.00
2018-04-26T07:54:57.971Z,61.30
2018-04-26T07:57:26.343Z,61.10
2018-04-26T07:59:54.733Z,60.20
2018-04-26T08:02:23.124Z,60.90
2018-04-26T08:04:51.529Z,60.50
2018-04-26T08:07:20.737Z,60.20
2018-04-26T08:09:49.252Z,60.20
2018-04-26T08:12:17.623Z,60.50
2018-04-26T08:14:45.989Z,60.70
2018-04-26T08:17:14.396Z,60.40
2018-04-26T08:19:42.788Z,60.40
2018-04-26T08:22:11.209Z,60.10
2018-04-26T08:24:40.376Z,61.80
2018-04-26T08:27:08.829Z,61.00
2018-04-26T08:29:37.212Z,61.00
2018-04-26T08:32:05.587Z,60.60
2018-04-26T08:34:33.973Z,60.90
2018-04-26T08:37:02.347Z,60.40
2018-04-26T08:39:30.752Z,59.30
2018-04-26T08:41:59.144Z,59.40
2018-04-26T08:44:27.673Z,59.80
2018-04-26T08:46:56.044Z,59.50
2018-04-26T08:49:24.408Z,59.80
2018-04-26T08:51:52.797Z,59.40
2018-04-26T08:54:21.166Z,58.80
2018-04-26T08:56:49.557Z,59.00
2018-04-26T08:59:17.924Z,59.00
2018-04-26T09:01:46.524Z,58.80
2018-04-26T09:04:14.905Z,58.70
2018-04-26T09:06:43.319Z,58.50
2018-04-26T09:09:11.701Z,59.80
2018-04-26T09:11:40.073Z,59.40
2018-04-26T09:14:08.477Z,59.20
2018-04-26T09:16:36.869Z,59.40
2018-04-26T09:19:05.580Z,58.60
2018-04-26T09:21:33.960Z,58.40
2018-04-26T09:24:02.338Z,59.00
2018-04-26T09:26:30.731Z,59.00
2018-04-26T09:28:59.560Z,58.70
2018-04-26T09:31:28.728Z,59.70
2018-04-26T09:33:57.101Z,59.00
2018-04-26T09:36:25.680Z,58.30
2018-04-26T09:38:54.052Z,56.80
2018-04-26T09:41:22.422Z,57.30
2018-04-26T09:43:50.848Z,58.60
2018-04-26T09:46:19.230Z,57.00
2018-04-26T09:48:47.616Z,57.90
2018-04-26T09:51:16.764Z,56.40
2018-04-26T09:53:45.338Z,56.30
2018-04-26T09:56:13.712Z,57.50
2018-04-26T09:58:42.096Z,57.40
2018-04-26T10:01:10.501Z,57.10
2018-04-26T10:03:38.903Z,57.50
2018-04-26T10:06:27.015Z,57.60
2018-04-26T10:08:55.389Z,57.90
2018-04-26T10:11:23.791Z,56.70
2018-04-26T10:13:52.169Z,56.80
2018-04-26T10:16:20.597Z,56.40
2018-04-26T10:18:48.969Z,55.60
2018-04-26T10:21:17.336Z,56.00
2018-04-26T10:23:45.735Z,57.00
2018-04-26T10:26:14.102Z,57.10
2018-04-26T10:28:42.506Z,57.00
2018-04-26T10:31:10.879Z,56.80
2018-04-26T10:33:39.458Z,57.60
2018-04-26T10:36:07.825Z,57.50
2018-04-26T10:38:36.196Z,57.60
2018-04-26T10:41:04.612Z,57.60
2018-04-26T10:43:32.984Z,57.80
2018-04-26T10:46:01.380Z,57.00
2018-04-26T10:48:29.749Z,57.00
2018-04-26T10:50:58.136Z,57.20
2018-04-26T10:53:26.585Z,57.60
2018-04-26T10:55:55.005Z,57.50
2018-04-26T10:58:23.383Z,57.20
2018-04-26T11:00:51.753Z,57.50
2018-04-26T11:03:20.145Z,57.80
2018-04-26T11:05:48.517Z,57.70
2018-04-26T11:08:16.917Z,56.70
2018-04-26T11:10:46.059Z,57.60
2018-04-26T11:13:14.753Z,57.50
2018-04-26T11:15:43.141Z,58.10
2018-04-26T11:18:11.540Z,58.10
2018-04-26T11:20:39.933Z,57.90
2018-04-26T11:23:09.069Z,57.70
2018-04-26T11:25:37.465Z,57.80
2018-04-26T11:28:05.840Z,57.80
2018-04-26T11:30:34.257Z,56.40
2018-04-26T11:33:02.629Z,56.50
2018-04-26T11:35:31.003Z,54.90
2018-04-26T11:37:59.397Z,54.40
2018-04-26T11:40:28.540Z,54.50
2018-04-26T11:42:56.928Z,53.90
2018-04-26T11:45:25.301Z,55.20
2018-04-26T11:47:54.087Z,54.20
2018-04-26T11:50:22.461Z,51.50
2018-04-26T11:52:50.832Z,52.10
2018-04-26T11:55:19.220Z,50.60
2018-04-26T11:57:47.588Z,50.70
2018-04-26T12:00:16.053Z,50.20
2018-04-26T12:02:44.424Z,50.90
2018-04-26T12:05:12.798Z,51.40
2018-04-26T12:07:42.024Z,50.90
2018-04-26T12:10:10.517Z,50.90
2018-04-26T12:12:38.885Z,50.70
2018-04-26T12:15:07.252Z,49.50
2018-04-26T12:17:35.645Z,50.10
2018-04-26T12:20:04.022Z,49.70
2018-04-26T12:22:32.419Z,50.40
2018-04-26T12:25:00.797Z,49.90
2018-04-26T12:27:29.461Z,50.20
2018-04-26T12:29:57.836Z,49.00
2018-04-26T12:32:26.204Z,47.90
2018-04-26T12:34:54.939Z,48.20
2018-04-26T12:37:23.321Z,47.50
2018-04-26T12:39:51.717Z,48.80
2018-04-26T12:42:20.130Z,49.60
2018-04-26T12:44:49.559Z,50.60
2018-04-26T12:47:17.932Z,50.60
2018-04-26T12:49:46.299Z,50.80
2018-04-26T12:52:14.693Z,50.70
2018-04-26T12:54:43.065Z,50.70
2018-04-26T12:57:11.453Z,51.10
2018-04-26T12:59:39.825Z,51.40
2018-04-26T13:02:08.406Z,50.30
2018-04-26T13:04:36.782Z,50.50
2018-04-26T13:07:05.159Z,50.30
2018-04-26T13:09:33.580Z,49.00
2018-04-26T13:12:02.027Z,47.70
2018-04-26T13:14:30.421Z,47.10
2018-04-26T13:16:58.800Z,47.60
2018-04-26T13:19:27.212Z,46.80
2018-04-26T13:21:56.362Z,45.50
2018-04-26T13:24:24.738Z,45.50
2018-04-26T13:26:53.144Z,45.40
2018-04-26T13:29:21.519Z,45.40
2018-04-26T13:31:49.913Z,44.40
2018-04-26T13:34:18.284Z,45.30
2018-04-26T13:36:46.824Z,45.30
2018-04-26T13:39:15.193Z,45.30
2018-04-26T13:41:43.563Z,45.00
2018-04-26T13:44:11.959Z,45.30
2018-04-26T13:46:40.420Z,45.70
2018-04-26T13:49:08.812Z,45.20
2018-04-26T13:51:37.273Z,44.80
2018-04-26T13:54:05.680Z,44.10
2018-04-26T13:56:34.049Z,43.60
2018-04-26T13:59:02.424Z,42.20
2018-04-26T14:01:30.833Z,43.20
2018-04-26T14:03:59.976Z,43.20
2018-04-26T14:06:29.149Z,42.10
2018-04-26T14:08:57.531Z,42.10
2018-04-26T14:11:26.378Z,43.50
2018-04-26T14:13:54.755Z,43.10
2018-04-26T14:16:23.136Z,44.30
2018-04-26T14:18:51.540Z,43.90
2018-04-26T14:21:19.918Z,44.40
2018-04-26T14:23:48.312Z,44.10
2018-04-26T14:26:16.697Z,43.20
2018-04-26T14:28:45.880Z,43.60
2018-04-26T14:31:14.256Z,43.10
2018-04-26T14:33:42.633Z,43.80
2018-04-26T14:36:11.035Z,43.50
2018-04-26T14:38:40.169Z,44.10
2018-04-26T14:41:08.571Z,43.50
2018-04-26T14:43:37.048Z,44.10
2018-04-26T14:46:05.481Z,44.20
2018-04-26T14:48:33.868Z,43.30
2018-04-26T14:51:02.253Z,42.70
2018-04-26T14:53:30.660Z,41.80
2018-04-26T14:55:59.041Z,42.40
2018-04-26T14:58:27.468Z,43.40
2018-04-26T15:00:56.616Z,43.60
2018-04-26T15:03:25.041Z,43.50
2018-04-26T15:05:54.183Z,43.00
2018-04-26T15:08:22.569Z,43.00
2018-04-26T15:10:50.962Z,42.70
2018-04-26T15:13:19.353Z,43.00
2018-04-26T15:15:47.755Z,43.70
2018-04-26T15:18:16.892Z,44.30
2018-04-26T15:20:45.578Z,44.20
2018-04-26T15:23:13.978Z,43.90
2018-04-26T15:25:42.352Z,43.40
2018-04-26T15:28:10.745Z,43.50
2018-04-26T15:30:39.126Z,43.40
2018-04-26T15:33:07.524Z,45.00
2018-04-26T15:35:36.673Z,43.80
2018-04-26T15:38:05.294Z,43.80
2018-04-26T15:40:33.668Z,43.70
2018-04-26T15:43:02.036Z,45.60
2018-04-26T15:45:30.428Z,44.30
2018-04-26T15:47:58.793Z,45.00
2018-04-26T15:50:51.968Z,46.40
2018-04-26T15:53:38.141Z,45.50
2018-04-26T15:59:38.015Z,44.50
2018-04-26T16:02:32.453Z,45.10
2018-04-26T16:05:24.404Z,45.00
2018-04-26T16:11:41.495Z,45.80
2018-04-26T16:14:33.324Z,46.00
2018-04-26T16:17:38.740Z,45.90
2018-04-26T16:20:18.520Z,46.90
2018-04-26T16:23:10.570Z,46.90
2018-04-26T16:25:56.792Z,47.20
2018-04-26T16:28:48.603Z,47.20
2018-04-26T16:31:40.292Z,46.80
2018-04-26T16:34:26.449Z,46.10
2018-04-26T16:37:13.417Z,47.30
2018-04-26T16:39:41.754Z,47.30
2018-04-26T16:42:10.899Z,46.60
2018-04-26T16:44:39.333Z,46.60
2018-04-26T16:49:43.509Z,46.20
2018-04-26T16:52:12.022Z,45.70
2018-04-26T16:54:40.888Z,46.10
2018-04-26T16:57:09.292Z,46.10
2018-04-26T16:59:39.171Z,45.60
2018-04-26T17:02:07.860Z,45.60
2018-04-26T17:04:36.487Z,45.90
2018-04-26T17:07:04.807Z,45.50
2018-04-26T17:09:33.245Z,42.60
2018-04-26T17:12:01.613Z,42.50
2018-04-26T17:14:30.193Z,43.10
2018-04-26T17:16:58.578Z,42.00
2018-04-26T17:19:37.594Z,42.70
2018-04-26T17:22:05.969Z,42.30
2018-04-26T17:24:34.350Z,42.90
2018-04-26T17:27:02.750Z,42.60
2018-04-26T17:29:32.778Z,43.60
2018-04-26T17:32:02.742Z,43.70
2018-04-26T17:34:31.137Z,44.30
2018-04-26T17:36:59.807Z,44.10
2018-04-26T17:39:29.091Z,44.80
2018-04-26T17:41:57.489Z,44.80
2018-04-26T17:44:26.193Z,45.00
2018-04-26T17:46:56.422Z,45.80
2018-04-26T17:49:26.519Z,45.30
2018-04-26T17:51:54.984Z,45.30
2018-04-26T17:54:23.384Z,45.50
2018-04-26T17:56:51.793Z,45.50
2018-04-26T17:59:20.949Z,46.00
2018-04-26T18:01:49.331Z,46.00
2018-04-26T18:04:18.040Z,46.70
2018-04-26T18:06:47.205Z,49.00
2018-04-26T18:09:15.890Z,49.00
2018-04-26T18:11:44.257Z,48.60
2018-04-26T18:14:12.641Z,48.00
2018-04-26T18:16:41.032Z,47.50
2018-04-26T18:19:09.470Z,48.30
2018-04-26T18:21:37.885Z,48.70
2018-04-26T18:24:06.270Z,47.80
2018-04-26T18:26:34.832Z,46.90
2018-04-26T18:29:03.240Z,47.90
2018-04-26T18:31:31.609Z,48.50
2018-04-26T18:34:00.595Z,47.60
2018-04-26T18:36:29.437Z,47.70
2018-04-26T18:38:59.654Z,48.90
2018-04-26T18:41:29.144Z,49.20
2018-04-26T18:43:57.653Z,49.20
2018-04-26T18:46:26.482Z,49.20
2018-04-26T18:48:54.961Z,48.00
2018-04-26T18:51:24.224Z,48.70
2018-04-26T18:53:52.566Z,48.70
2018-04-26T18:56:21.329Z,49.80
2018-04-26T18:58:49.868Z,49.70
2018-04-26T19:01:19.397Z,48.20
2018-04-26T19:03:48.438Z,48.20
2018-04-26T19:06:17.049Z,48.40
2018-04-26T19:08:45.632Z,47.40
2018-04-26T19:11:14.053Z,47.00
2018-04-26T19:13:42.567Z,47.30
2018-04-26T19:16:11.418Z,47.80
2018-04-26T19:18:40.117Z,48.40
2018-04-26T19:21:08.827Z,48.90
2018-04-26T19:23:37.496Z,49.60
2018-04-26T19:26:07.088Z,50.00
2018-04-26T19:28:35.671Z,50.00
2018-04-26T19:31:04.399Z,50.10
2018-04-26T19:33:33.938Z,51.20
2018-04-26T19:36:03.227Z,50.40
2018-04-26T19:38:32.116Z,51.00
2018-04-26T19:41:02.199Z,50.40
2018-04-26T19:43:31.052Z,50.40
2018-04-26T19:46:00.875Z,50.10
2018-04-26T19:48:30.787Z,50.90
2018-04-26T19:50:59.984Z,50.20
2018-04-26T19:53:29.228Z,51.20
2018-04-26T19:55:58.891Z,48.60
2018-04-26T19:58:27.297Z,48.50
2018-04-26T20:00:57.631Z,49.40
2018-04-26T20:03:26.485Z,49.40
2018-04-26T20:05:56.370Z,49.50
2018-04-26T20:08:24.830Z,50.20
2018-04-26T20:10:53.289Z,50.70
2018-04-26T20:13:21.680Z,51.70
2018-04-26T20:15:52.084Z,53.00
2018-04-26T20:18:20.488Z,53.00
2018-04-26T20:20:49.760Z,53.50
2018-04-26T20:23:18.346Z,53.50
2018-04-26T20:25:46.912Z,53.10
2018-04-26T20:28:15.340Z,52.80
2018-04-26T20:30:43.786Z,52.80
2018-04-26T20:33:12.573Z,52.80
2018-04-26T20:35:41.082Z,52.60
2018-04-26T20:38:10.221Z,52.40
2018-04-26T20:40:39.488Z,52.30
2018-04-26T20:43:08.488Z,52.10
2018-04-26T20:45:36.912Z,52.20
2018-04-26T20:48:05.326Z,51.40
2018-04-26T20:50:35.145Z,51.70
2018-04-26T20:53:05.178Z,52.00
2018-04-26T20:55:33.544Z,52.00
2018-04-26T20:58:03.146Z,51.70
2018-04-26T21:00:32.441Z,51.80
2018-04-26T21:03:01.686Z,51.80
2018-04-26T21:05:30.140Z,51.70
2018-04-26T21:07:58.518Z,52.00
2018-04-26T21:10:26.916Z,52.50
2018-04-26T21:12:55.389Z,52.30
2018-04-26T21:15:24.302Z,52.00
2018-04-26T21:17:53.580Z,51.70
2018-04-26T21:20:21.952Z,51.70
2018-04-26T21:22:50.348Z,51.60
2018-04-26T21:25:18.712Z,51.70
2018-04-26T21:28:15.890Z,52.90
2018-04-26T21:30:46.924Z,52.30
2018-04-26T21:33:15.644Z,52.20
2018-04-26T21:35:44.117Z,52.40
2018-04-26T21:38:13.285Z,51.90
2018-04-26T21:40:42.110Z,52.50
2018-04-26T21:43:10.917Z,51.90
2018-04-26T21:45:40.105Z,52.70
2018-04-26T21:48:08.480Z,52.70
2018-04-26T21:50:42.859Z,53.00
2018-04-26T21:53:16.731Z,53.10
2018-04-26T21:55:51.701Z,52.40
2018-04-26T21:58:25.583Z,52.40
2018-04-26T22:00:59.921Z,52.50
2018-04-26T22:03:32.282Z,52.20
2018-04-26T22:06:00.984Z,52.20
2018-04-26T22:08:29.353Z,51.80
2018-04-26T22:10:57.724Z,51.60
2018-04-26T22:13:26.204Z,51.90
2018-04-26T22:15:54.661Z,51.90
2018-04-26T22:18:23.821Z,51.80
2018-04-26T22:20:52.197Z,51.80
2018-04-26T22:23:20.640Z,51.90
2018-04-26T22:25:49.018Z,51.70
2018-04-26T22:28:17.385Z,52.10
2018-04-26T22:30:45.769Z,52.70
2018-04-26T22:33:14.137Z,53.40
2018-04-26T22:35:42.525Z,54.10
2018-04-26T22:38:10.893Z,54.20
2018-04-26T22:40:39.266Z,54.30
2018-04-26T22:43:08.425Z,54.80
2018-04-26T22:45:36.800Z,54.80
2018-04-26T22:48:05.191Z,55.60
2018-04-26T22:50:34.343Z,56.40
2018-04-26T22:53:02.928Z,56.50
2018-04-26T22:55:31.299Z,55.90
2018-04-26T22:57:59.664Z,55.30
2018-04-26T23:00:28.121Z,55.00
2018-04-26T23:02:56.535Z,54.80
2018-04-26T23:05:24.924Z,54.60
2018-04-26T23:07:53.297Z,54.50
2018-04-26T23:10:22.348Z,54.00
2018-04-26T23:12:50.712Z,53.90
2018-04-26T23:15:19.095Z,54.00
2018-04-26T23:17:47.491Z,54.10
2018-04-26T23:20:16.624Z,55.10
2018-04-26T23:22:45.727Z,55.20
2018-04-26T23:25:14.122Z,55.50
2018-04-26T23:27:42.681Z,55.90
2018-04-26T23:30:11.056Z,56.20
2018-04-26T23:32:39.424Z,56.50
2018-04-26T23:35:07.825Z,56.70
2018-04-26T23:37:36.201Z,57.00
2018-04-26T23:40:04.597Z,57.40
2018-04-26T23:42:32.964Z,57.40
2018-04-26T23:45:01.511Z,57.60
2018-04-26T23:47:29.880Z,58.00
2018-04-26T23:49:59.362Z,59.00
2018-04-26T23:52:27.753Z,59.00
2018-04-26T23:54:56.880Z,59.40
2018-04-26T23:57:25.267Z,59.30
2018-04-26T23:59:53.653Z,59.30
